Time;durP1;ratioP1;P1;durP2;ratioP2;P2;SDS_P1;SDS_P2;PMS_P1;PMS_P2;Temp;Humidity;BMP_temperature;BMP_pressure;BME280_temperature;BME280_humidity;BME280_pressure;Samples;Min_cycle;Max_cycle;Signal;HPM_P1;HPM_P2
2021/07/27 00:00:55;;;;;;;;;;;;;;;;;;1482890;40;7012;-65
2021/07/27 00:01:59;;;;;;;;;;;;;;;;;;1478542;40;7007;-65
2021/07/27 00:03:02;;;;;;;;;;;;;;;;;;1479134;40;7047;-65
2021/07/27 00:04:05;;;;;;;;;;;;;;;;;;1478902;40;7023;-65
2021/07/27 00:05:07;;;;;;;;;;;;;;;;;;1478718;40;7203;-65
2021/07/27 00:06:11;;;;;;;;;;;;;;;;;;1478588;40;7019;-65
2021/07/27 00:07:13;;;;;;;;;;;;;;;;;;1478645;40;7040;-65
2021/07/27 00:08:15;;;;;;;;;;;;;;;;;;1480297;40;7031;-65
2021/07/27 00:09:18;;;;;;;;;;;;;;;;;;1482712;40;7007;-66
2021/07/27 00:10:20;;;;;;;;;;;;;;;;;;1483265;40;7007;-65
2021/07/27 00:11:23;;;;;;;;;;;;;;;;;;1479154;40;7008;-65
2021/07/27 00:12:25;;;;;;;;;;;;;;;;;;1482697;40;7007;-65
2021/07/27 00:13:28;;;;;;;;;;;;;;;;;;1485623;40;7006;-65
2021/07/27 00:14:30;;;;;;;;;;;;;;;;;;1481679;40;7115;-66
2021/07/27 00:15:33;;;;;;;;;;;;;;;;;;1478452;40;7031;-65
2021/07/27 00:16:36;;;;;;;;;;;;;;;;;;1478626;40;7012;-65
2021/07/27 00:17:38;;;;;;;;;;;;;;;;;;1483103;40;7035;-66
2021/07/27 00:18:41;;;;;;;;;;;;;;;;;;1478431;40;7051;-65
2021/07/27 00:19:43;;;;;;;;;;;;;;;;;;1479027;40;7038;-65
2021/07/27 00:20:46;;;;;;;;;;;;;;;;;;1478294;40;6999;-65
2021/07/27 00:21:48;;;;;;;;;;;;;;;;;;1478182;40;7008;-66
2021/07/27 00:22:51;;;;;;;;;;;;;;;;;;1477883;40;7036;-66
2021/07/27 00:23:53;;;;;;;;;;;;;;;;;;1477849;40;7039;-65
2021/07/27 00:24:57;;;;;;;;;;;;;;;;;;1477982;40;7015;-65
2021/07/27 00:26:01;;;;;;;;;;;;;;;;;;1478005;40;7047;-65
2021/07/27 00:27:04;;;;;;;;;;;;;;;;;;1477938;40;7912;-65
2021/07/27 00:28:06;;;;;;;;;;;;;;;;;;1478693;40;7019;-65
2021/07/27 00:29:08;;;;;;;;;;;;;;;;;;1477999;40;7016;-66
2021/07/27 00:30:11;;;;;;;;;;;;;;;;;;1481659;40;7389;-65
2021/07/27 00:31:15;;;;;;;;;;;;;;;;;;1482195;40;7053;-65
2021/07/27 00:32:18;;;;;;;;;;;;;;;;;;1478911;40;7007;-66
2021/07/27 00:33:20;;;;;;;;;;;;;;;;;;1477881;40;7000;-65
2021/07/27 00:34:23;;;;;;;;;;;;;;;;;;1478044;40;7923;-66
2021/07/27 00:35:25;;;;;;;;;;;;;;;;;;1481094;40;6996;-65
2021/07/27 00:36:28;;;;;;;;;;;;;;;;;;1482341;40;7038;-65
2021/07/27 00:37:33;;;;;;;;;;;;;;;;;;1481282;40;7043;-66
2021/07/27 00:38:35;;;;;;;;;;;;;;;;;;1478023;40;7035;-65
2021/07/27 00:39:38;;;;;;;;;;;;;;;;;;1478146;40;7004;-65
2021/07/27 00:40:40;;;;;;;;;;;;;;;;;;1477359;40;7011;-65
2021/07/27 00:41:43;;;;;;;;;;;;;;;;;;1478163;40;7899;-65
2021/07/27 00:42:46;;;;;;;;;;;;;;;;;;1482008;40;7043;-65
2021/07/27 00:43:49;;;;;;;;;;;;;;;;;;1481669;40;7907;-65
2021/07/27 00:44:51;;;;;;;;;;;;;;;;;;1478499;40;8208;-65
2021/07/27 00:45:54;;;;;;;;;;;;;;;;;;1478155;40;7028;-65
2021/07/27 00:46:56;;;;;;;;;;;;;;;;;;1478390;40;7031;-65
2021/07/27 00:47:59;;;;;;;;;;;;;;;;;;1479304;40;7040;-65
2021/07/27 00:49:01;;;;;;;;;;;;;;;;;;1482417;40;7004;-65
2021/07/27 00:50:07;;;;;;;;;;;;;;;;;;1482360;40;7063;-66
2021/07/27 00:51:09;;;;;;;;;;;;;;;;;;1482522;40;7027;-65
2021/07/27 00:52:12;;;;;;;;;;;;;;;;;;1481375;40;7027;-65
2021/07/27 00:53:15;;;;;;;;;;;;;;;;;;1478443;40;6999;-65
2021/07/27 00:54:17;;;;;;;;;;;;;;;;;;1478249;40;7963;-66
2021/07/27 00:55:19;;;;;;;;;;;;;;;;;;1482166;40;7030;-65
2021/07/27 00:56:22;;;;;;;;;;;;;;;;;;1481850;40;7144;-65
2021/07/27 00:57:24;;;;;;;;;;;;;;;;;;1478354;40;7027;-65
2021/07/27 00:58:27;;;;;;;;;;;;;;;;;;1478051;40;7011;-66
2021/07/27 00:59:30;;;;;;;;;;;;;;;;;;1479869;40;7003;-66
2021/07/27 01:00:33;;;;;;;;;;;;;;;;;;1482537;40;7038;-65
2021/07/27 01:01:35;;;;;;;;;;;;;;;;;;1482686;40;7008;-65
2021/07/27 01:02:38;;;;;;;;;;;;;;;;;;1479930;40;7035;-65
2021/07/27 01:03:40;;;;;;;;;;;;;;;;;;1478348;40;7015;-66
2021/07/27 01:04:43;;;;;;;;;;;;;;;;;;1479117;40;7003;-65
2021/07/27 01:05:45;;;;;;;;;;;;;;;;;;1478882;40;7008;-66
2021/07/27 01:06:48;;;;;;;;;;;;;;;;;;1478739;40;7921;-65
2021/07/27 01:07:51;;;;;;;;;;;;;;;;;;1478768;40;7027;-65
2021/07/27 01:08:53;;;;;;;;;;;;;;;;;;1478850;40;7023;-65
2021/07/27 01:09:55;;;;;;;;;;;;;;;;;;1478874;40;7007;-65
2021/07/27 01:10:58;;;;;;;;;;;;;;;;;;1478982;40;7020;-65
2021/07/27 01:12:02;;;;;;;;;;;;;;;;;;1479145;40;7912;-65
2021/07/27 01:13:07;;;;;;;;;;;;;;;;;;1479153;40;7969;-65
2021/07/27 01:14:10;;;;;;;;;;;;;;;;;;1481584;40;7027;-66
2021/07/27 01:15:13;;;;;;;;;;;;;;;;;;1482810;40;7003;-65
2021/07/27 01:16:16;;;;;;;;;;;;;;;;;;1482949;40;7016;-65
2021/07/27 01:17:19;;;;;;;;;;;;;;;;;;1483203;40;7026;-65
2021/07/27 01:18:26;;;;;;;;;;;;;;;;;;1480968;40;7012;-66
2021/07/27 01:20:57;;;;;;;;;;;;;;;;;;1478981;40;7038;-65
2021/07/27 01:39:51;;;;;;;;;;;;;;;;;;1482874;40;6999;-65
2021/07/27 01:42:12;;;;;;;;;;;;;;;;;;1482870;40;7051;-65
2021/07/27 01:43:18;;;;;;;;;;;;;;;;;;1482977;40;7122;-65
2021/07/27 01:44:21;;;;;;;;;;;;;;;;;;1482867;40;7031;-65
2021/07/27 01:45:23;;;;;;;;;;;;;;;;;;1483113;40;7905;-66
2021/07/27 01:46:26;;;;;;;;;;;;;;;;;;1482814;40;7007;-65
2021/07/27 01:47:28;;;;;;;;;;;;;;;;;;1482995;40;7031;-66
2021/07/27 01:48:32;;;;;;;;;;;;;;;;;;1481171;40;7043;-65
2021/07/27 01:49:34;;;;;;;;;;;;;;;;;;1478970;40;7015;-65
2021/07/27 01:50:37;;;;;;;;;;;;;;;;;;1478852;40;7014;-65
2021/07/27 01:51:42;;;;;;;;;;;;;;;;;;1482803;40;7952;-65
2021/07/27 01:52:47;;;;;;;;;;;;;;;;;;1481399;40;7044;-65
2021/07/27 01:53:51;;;;;;;;;;;;;;;;;;1483011;40;7019;-65
2021/07/27 01:54:55;;;;;;;;;;;;;;;;;;1483066;40;7055;-65
2021/07/27 01:55:57;;;;;;;;;;;;;;;;;;1479060;40;7043;-65
2021/07/27 01:57:00;;;;;;;;;;;;;;;;;;1478956;40;6999;-65
2021/07/27 01:58:03;;;;;;;;;;;;;;;;;;1479083;40;6995;-65
2021/07/27 01:59:08;;;;;;;;;;;;;;;;;;1478596;40;7003;-65
2021/07/27 02:00:11;;;;;;;;;;;;;;;;;;1478239;40;6999;-65
2021/07/27 02:01:13;;;;;;;;;;;;;;;;;;1478777;40;7034;-65
2021/07/27 02:02:16;;;;;;;;;;;;;;;;;;1480661;40;7003;-66
2021/07/27 02:03:19;;;;;;;;;;;;;;;;;;1482626;40;7031;-65
2021/07/27 02:04:21;;;;;;;;;;;;;;;;;;1482770;40;7003;-66
2021/07/27 02:05:24;;;;;;;;;;;;;;;;;;1482576;40;7039;-65
2021/07/27 02:06:26;;;;;;;;;;;;;;;;;;1482893;40;7271;-65
2021/07/27 02:07:29;;;;;;;;;;;;;;;;;;1482941;40;7035;-65
2021/07/27 02:08:32;;;;;;;;;;;;;;;;;;1483384;40;7008;-65
2021/07/27 02:09:39;;;;;;;;;;;;;;;;;;1482773;40;7043;-65
2021/07/27 02:10:45;;;;;;;;;;;;;;;;;;1482929;40;7010;-65
2021/07/27 02:11:52;;;;;;;;;;;;;;;;;;1479589;40;7215;-65
2021/07/27 02:13:02;;;;;;;;;;;;;;;;;;1478777;40;7008;-65
2021/07/27 02:14:04;;;;;;;;;;;;;;;;;;1478335;40;7099;-65
2021/07/27 02:15:07;;;;;;;;;;;;;;;;;;1478357;40;7031;-66
2021/07/27 02:16:10;;;;;;;;;;;;;;;;;;1478725;40;7003;-65
2021/07/27 02:17:13;;;;;;;;;;;;;;;;;;1478702;40;7487;-65
2021/07/27 02:18:15;;;;;;;;;;;;;;;;;;1478874;40;6999;-65
2021/07/27 02:19:18;;;;;;;;;;;;;;;;;;1478784;40;7039;-65
2021/07/27 02:20:20;;;;;;;;;;;;;;;;;;1478470;40;8669;-65
2021/07/27 02:21:22;;;;;;;;;;;;;;;;;;1478517;40;7000;-65
2021/07/27 02:22:25;;;;;;;;;;;;;;;;;;1478187;40;7003;-66
2021/07/27 02:23:27;;;;;;;;;;;;;;;;;;1478214;40;7076;-65
2021/07/27 02:24:30;;;;;;;;;;;;;;;;;;1478165;40;7216;-66
2021/07/27 02:25:32;;;;;;;;;;;;;;;;;;1478410;40;7035;-65
2021/07/27 02:26:35;;;;;;;;;;;;;;;;;;1478260;40;7008;-65
2021/07/27 02:27:37;;;;;;;;;;;;;;;;;;1478559;40;7215;-65
2021/07/27 02:28:40;;;;;;;;;;;;;;;;;;1478333;40;7007;-65
2021/07/27 02:29:43;;;;;;;;;;;;;;;;;;1478483;40;7135;-65
2021/07/27 02:31:00;;;;;;;;;;;;;;;;;;1478200;40;7000;-65
2021/07/27 02:32:03;;;;;;;;;;;;;;;;;;1481718;40;7202;-65
2021/07/27 02:33:06;;;;;;;;;;;;;;;;;;1482838;40;7139;-65
2021/07/27 02:34:08;;;;;;;;;;;;;;;;;;1477711;40;7052;-65
2021/07/27 02:35:10;;;;;;;;;;;;;;;;;;1478144;40;6999;-65
2021/07/27 02:36:13;;;;;;;;;;;;;;;;;;1478005;40;7972;-65
2021/07/27 02:37:15;;;;;;;;;;;;;;;;;;1478670;40;7203;-65
2021/07/27 02:38:18;;;;;;;;;;;;;;;;;;1478744;40;7115;-65
2021/07/27 02:39:21;;;;;;;;;;;;;;;;;;1478636;40;7007;-65
2021/07/27 02:40:23;;;;;;;;;;;;;;;;;;1478003;40;7000;-65
2021/07/27 02:41:25;;;;;;;;;;;;;;;;;;1478392;40;7012;-65
2021/07/27 02:42:28;;;;;;;;;;;;;;;;;;1478670;40;7008;-65
2021/07/27 02:43:30;;;;;;;;;;;;;;;;;;1478437;40;7019;-65
2021/07/27 02:44:33;;;;;;;;;;;;;;;;;;1478661;40;7948;-65
2021/07/27 02:45:36;;;;;;;;;;;;;;;;;;1478827;40;7035;-65
2021/07/27 02:46:39;;;;;;;;;;;;;;;;;;1479049;40;6999;-65
2021/07/27 02:47:42;;;;;;;;;;;;;;;;;;1483066;40;7000;-65
2021/07/27 02:48:44;;;;;;;;;;;;;;;;;;1482799;40;7107;-65
2021/07/27 02:49:47;;;;;;;;;;;;;;;;;;1482737;40;7198;-65
2021/07/27 02:51:00;;;;;;;;;;;;;;;;;;1483157;40;7031;-65
2021/07/27 02:52:12;;;;;;;;;;;;;;;;;;1483402;40;7011;-66
2021/07/27 02:53:15;;;;;;;;;;;;;;;;;;1479059;40;7055;-65
2021/07/27 02:54:17;;;;;;;;;;;;;;;;;;1478637;40;7180;-65
2021/07/27 02:55:20;;;;;;;;;;;;;;;;;;1478634;40;7007;-65
2021/07/27 02:56:22;;;;;;;;;;;;;;;;;;1478680;40;7999;-65
2021/07/27 02:57:25;;;;;;;;;;;;;;;;;;1478831;40;7011;-65
2021/07/27 02:58:29;;;;;;;;;;;;;;;;;;1479003;40;7012;-65
2021/07/27 02:59:32;;;;;;;;;;;;;;;;;;1479957;40;7004;-65
2021/07/27 03:00:37;;;;;;;;;;;;;;;;;;1482728;40;7122;-65
2021/07/27 03:01:40;;;;;;;;;;;;;;;;;;1482980;40;7019;-65
2021/07/27 03:02:44;;;;;;;;;;;;;;;;;;1482579;40;7039;-65
2021/07/27 03:03:47;;;;;;;;;;;;;;;;;;1482782;40;7947;-65
2021/07/27 03:04:50;;;;;;;;;;;;;;;;;;1482673;40;7031;-65
2021/07/27 03:05:58;;;;;;;;;;;;;;;;;;1482604;40;7044;-65
2021/07/27 03:07:02;;;;;;;;;;;;;;;;;;1483145;40;7281;-65
2021/07/27 03:08:10;;;;;;;;;;;;;;;;;;1482982;40;8025;-65
2021/07/27 03:09:16;;;;;;;;;;;;;;;;;;1483102;40;6999;-65
2021/07/27 03:10:22;;;;;;;;;;;;;;;;;;1482288;40;7027;-65
2021/07/27 03:11:24;;;;;;;;;;;;;;;;;;1483912;40;6999;-65
2021/07/27 03:12:27;;;;;;;;;;;;;;;;;;1482737;40;7059;-65
2021/07/27 03:13:29;;;;;;;;;;;;;;;;;;1482228;40;7012;-65
2021/07/27 03:14:32;;;;;;;;;;;;;;;;;;1479260;40;7006;-65
2021/07/27 03:15:34;;;;;;;;;;;;;;;;;;1478286;40;7015;-65
2021/07/27 03:16:36;;;;;;;;;;;;;;;;;;1478318;40;7023;-66
2021/07/27 03:17:39;;;;;;;;;;;;;;;;;;1478202;40;7007;-65
2021/07/27 03:18:42;;;;;;;;;;;;;;;;;;1478570;40;7063;-66
2021/07/27 03:19:45;;;;;;;;;;;;;;;;;;1481020;40;7008;-65
2021/07/27 03:20:47;;;;;;;;;;;;;;;;;;1482595;40;6999;-65
2021/07/27 03:21:49;;;;;;;;;;;;;;;;;;1482668;40;6999;-65
2021/07/27 03:22:52;;;;;;;;;;;;;;;;;;1482628;40;7013;-65
2021/07/27 03:23:55;;;;;;;;;;;;;;;;;;1482626;40;7044;-65
2021/07/27 03:24:57;;;;;;;;;;;;;;;;;;1479270;40;7966;-65
2021/07/27 03:26:00;;;;;;;;;;;;;;;;;;1481943;40;7016;-67
2021/07/27 03:27:02;;;;;;;;;;;;;;;;;;1482298;40;7003;-65
2021/07/27 03:28:05;;;;;;;;;;;;;;;;;;1482393;40;7143;-65
2021/07/27 03:29:07;;;;;;;;;;;;;;;;;;1482746;40;8153;-65
2021/07/27 03:30:10;;;;;;;;;;;;;;;;;;1478417;40;7030;-65
2021/07/27 03:31:12;;;;;;;;;;;;;;;;;;1478432;40;6999;-65
2021/07/27 03:32:15;;;;;;;;;;;;;;;;;;1480504;40;7371;-65
2021/07/27 03:33:17;;;;;;;;;;;;;;;;;;1479816;40;7000;-66
2021/07/27 03:34:20;;;;;;;;;;;;;;;;;;1478269;40;6999;-66
2021/07/27 03:35:22;;;;;;;;;;;;;;;;;;1479922;40;7932;-65
2021/07/27 03:36:24;;;;;;;;;;;;;;;;;;1482784;40;7003;-65
2021/07/27 03:37:27;;;;;;;;;;;;;;;;;;1482533;40;7938;-65
2021/07/27 03:38:31;;;;;;;;;;;;;;;;;;1482560;40;7015;-65
2021/07/27 03:39:33;;;;;;;;;;;;;;;;;;1480592;40;7003;-65
2021/07/27 03:40:35;;;;;;;;;;;;;;;;;;1477792;40;7003;-65
2021/07/27 03:41:38;;;;;;;;;;;;;;;;;;1478279;40;7186;-65
2021/07/27 03:42:40;;;;;;;;;;;;;;;;;;1479356;40;7962;-65
2021/07/27 03:43:43;;;;;;;;;;;;;;;;;;1482992;40;7418;-65
2021/07/27 03:44:45;;;;;;;;;;;;;;;;;;1482686;40;7039;-65
2021/07/27 03:45:48;;;;;;;;;;;;;;;;;;1482677;40;7064;-65
2021/07/27 03:46:51;;;;;;;;;;;;;;;;;;1482794;40;7967;-65
2021/07/27 03:47:53;;;;;;;;;;;;;;;;;;1482673;40;7919;-65
2021/07/27 03:48:56;;;;;;;;;;;;;;;;;;1480009;40;7071;-65
2021/07/27 03:49:58;;;;;;;;;;;;;;;;;;1478313;40;7051;-65
2021/07/27 03:51:01;;;;;;;;;;;;;;;;;;1478822;40;7004;-65
2021/07/27 03:52:04;;;;;;;;;;;;;;;;;;1478383;40;7042;-65
2021/07/27 03:53:10;;;;;;;;;;;;;;;;;;1478684;40;7016;-65
2021/07/27 03:54:13;;;;;;;;;;;;;;;;;;1478373;40;7008;-65
2021/07/27 03:55:15;;;;;;;;;;;;;;;;;;1477923;40;8050;-66
2021/07/27 03:56:18;;;;;;;;;;;;;;;;;;1478321;40;7039;-65
2021/07/27 03:57:20;;;;;;;;;;;;;;;;;;1478580;40;7031;-65
2021/07/27 03:58:23;;;;;;;;;;;;;;;;;;1478475;40;7019;-65
2021/07/27 03:59:25;;;;;;;;;;;;;;;;;;1479755;40;7460;-65
2021/07/27 04:00:32;;;;;;;;;;;;;;;;;;1482895;40;7020;-65
2021/07/27 04:01:35;;;;;;;;;;;;;;;;;;1482677;40;7012;-65
2021/07/27 04:02:37;;;;;;;;;;;;;;;;;;1482714;40;7003;-65
2021/07/27 04:03:40;;;;;;;;;;;;;;;;;;1478463;40;7060;-65
2021/07/27 04:04:42;;;;;;;;;;;;;;;;;;1478984;40;7028;-65
2021/07/27 04:05:45;;;;;;;;;;;;;;;;;;1478509;40;7046;-65
2021/07/27 04:06:48;;;;;;;;;;;;;;;;;;1478404;40;7003;-65
2021/07/27 04:07:50;;;;;;;;;;;;;;;;;;1478297;40;7016;-65
2021/07/27 04:08:56;;;;;;;;;;;;;;;;;;1478616;40;7016;-65
2021/07/27 04:09:59;;;;;;;;;;;;;;;;;;1478393;40;7031;-65
2021/07/27 04:11:05;;;;;;;;;;;;;;;;;;1478713;40;7003;-65
2021/07/27 04:12:07;;;;;;;;;;;;;;;;;;1478225;40;7052;-65
2021/07/27 04:13:10;;;;;;;;;;;;;;;;;;1478662;40;7047;-65
2021/07/27 04:14:12;;;;;;;;;;;;;;;;;;1478781;40;7227;-66
2021/07/27 04:15:14;;;;;;;;;;;;;;;;;;1478667;40;7214;-65
2021/07/27 04:16:17;;;;;;;;;;;;;;;;;;1478444;40;7008;-66
2021/07/27 04:17:20;;;;;;;;;;;;;;;;;;1478574;40;7942;-65
2021/07/27 04:18:22;;;;;;;;;;;;;;;;;;1478608;40;7007;-65
2021/07/27 04:19:25;;;;;;;;;;;;;;;;;;1479143;40;7003;-66
2021/07/27 04:20:27;;;;;;;;;;;;;;;;;;1478395;40;7012;-65
2021/07/27 04:21:30;;;;;;;;;;;;;;;;;;1479319;40;7032;-65
2021/07/27 04:22:32;;;;;;;;;;;;;;;;;;1478322;40;7108;-65
2021/07/27 04:23:34;;;;;;;;;;;;;;;;;;1477761;40;7093;-65
2021/07/27 04:24:37;;;;;;;;;;;;;;;;;;1480411;40;7055;-65
2021/07/27 04:25:39;;;;;;;;;;;;;;;;;;1482081;40;7003;-65
2021/07/27 04:26:42;;;;;;;;;;;;;;;;;;1482235;40;7031;-65
2021/07/27 04:27:44;;;;;;;;;;;;;;;;;;1482503;40;7593;-65
2021/07/27 04:28:46;;;;;;;;;;;;;;;;;;1477824;40;7003;-65
2021/07/27 04:29:49;;;;;;;;;;;;;;;;;;1478153;40;7035;-65
2021/07/27 04:30:51;;;;;;;;;;;;;;;;;;1477949;40;7031;-65
2021/07/27 04:31:54;;;;;;;;;;;;;;;;;;1478044;40;7003;-65
2021/07/27 04:32:56;;;;;;;;;;;;;;;;;;1477942;40;7031;-65
2021/07/27 04:33:58;;;;;;;;;;;;;;;;;;1478090;40;7008;-65
2021/07/27 04:35:01;;;;;;;;;;;;;;;;;;1478246;40;7012;-65
2021/07/27 04:36:04;;;;;;;;;;;;;;;;;;1477633;40;7059;-65
2021/07/27 04:37:06;;;;;;;;;;;;;;;;;;1478504;40;7016;-65
2021/07/27 04:38:09;;;;;;;;;;;;;;;;;;1482150;40;7037;-66
2021/07/27 04:39:11;;;;;;;;;;;;;;;;;;1482252;40;7008;-65
2021/07/27 04:40:13;;;;;;;;;;;;;;;;;;1477814;40;7087;-65
2021/07/27 04:41:17;;;;;;;;;;;;;;;;;;1478128;40;7016;-65
2021/07/27 04:42:19;;;;;;;;;;;;;;;;;;1479491;40;7188;-65
2021/07/27 04:43:22;;;;;;;;;;;;;;;;;;1478875;40;7031;-65
2021/07/27 04:44:24;;;;;;;;;;;;;;;;;;1478911;40;7027;-65
2021/07/27 04:45:28;;;;;;;;;;;;;;;;;;1478909;40;7004;-65
2021/07/27 04:46:30;;;;;;;;;;;;;;;;;;1479109;40;7007;-66
2021/07/27 04:47:33;;;;;;;;;;;;;;;;;;1479132;40;7007;-65
2021/07/27 04:48:37;;;;;;;;;;;;;;;;;;1480694;40;7011;-65
2021/07/27 04:49:39;;;;;;;;;;;;;;;;;;1479685;40;7043;-65
2021/07/27 04:50:44;;;;;;;;;;;;;;;;;;1479855;40;7168;-65
2021/07/27 04:51:47;;;;;;;;;;;;;;;;;;1478832;40;7007;-65
2021/07/27 04:52:58;;;;;;;;;;;;;;;;;;1480273;40;7003;-65
2021/07/27 04:54:04;;;;;;;;;;;;;;;;;;1482990;40;7039;-65
2021/07/27 04:55:08;;;;;;;;;;;;;;;;;;1483262;40;7027;-65
2021/07/27 04:56:10;;;;;;;;;;;;;;;;;;1483019;40;6998;-66
2021/07/27 04:57:22;;;;;;;;;;;;;;;;;;1483158;40;7008;-65
2021/07/27 04:58:26;;;;;;;;;;;;;;;;;;1483036;40;7035;-65
2021/07/27 04:59:31;;;;;;;;;;;;;;;;;;1481642;40;7030;-65
2021/07/27 05:00:33;;;;;;;;;;;;;;;;;;1479280;40;7994;-65
2021/07/27 05:01:40;;;;;;;;;;;;;;;;;;1478952;40;7233;-66
2021/07/27 05:02:42;;;;;;;;;;;;;;;;;;1478709;40;7506;-65
2021/07/27 05:03:45;;;;;;;;;;;;;;;;;;1478977;40;7019;-65
2021/07/27 05:04:47;;;;;;;;;;;;;;;;;;1479092;40;7003;-65
2021/07/27 05:05:52;;;;;;;;;;;;;;;;;;1479283;40;6995;-65
2021/07/27 05:06:55;;;;;;;;;;;;;;;;;;1478853;40;7939;-65
2021/07/27 05:08:01;;;;;;;;;;;;;;;;;;1481811;40;7031;-65
2021/07/27 05:09:04;;;;;;;;;;;;;;;;;;1484555;40;8873;-65
2021/07/27 05:10:06;;;;;;;;;;;;;;;;;;1481555;40;7907;-65
2021/07/27 05:11:09;;;;;;;;;;;;;;;;;;1478186;40;8084;-65
2021/07/27 05:12:11;;;;;;;;;;;;;;;;;;1478578;40;8177;-65
2021/07/27 05:13:13;;;;;;;;;;;;;;;;;;1478656;40;7007;-65
2021/07/27 05:14:16;;;;;;;;;;;;;;;;;;1480667;40;7111;-65
2021/07/27 05:15:18;;;;;;;;;;;;;;;;;;1478614;40;7227;-65
2021/07/27 05:16:21;;;;;;;;;;;;;;;;;;1478933;40;7027;-65
2021/07/27 05:17:23;;;;;;;;;;;;;;;;;;1482445;40;7966;-65
2021/07/27 05:18:26;;;;;;;;;;;;;;;;;;1483034;40;7003;-65
2021/07/27 05:19:28;;;;;;;;;;;;;;;;;;1482912;40;6999;-65
2021/07/27 05:20:31;;;;;;;;;;;;;;;;;;1480996;40;7379;-66
2021/07/27 05:21:34;;;;;;;;;;;;;;;;;;1478370;40;7039;-65
2021/07/27 05:22:36;;;;;;;;;;;;;;;;;;1478447;40;7560;-65
2021/07/27 05:23:39;;;;;;;;;;;;;;;;;;1478195;40;7007;-65
2021/07/27 05:24:41;;;;;;;;;;;;;;;;;;1481217;40;7016;-65
2021/07/27 05:25:44;;;;;;;;;;;;;;;;;;1482471;40;7047;-66
2021/07/27 05:26:46;;;;;;;;;;;;;;;;;;1482567;40;7039;-65
2021/07/27 05:27:49;;;;;;;;;;;;;;;;;;1482128;40;7031;-66
2021/07/27 05:28:51;;;;;;;;;;;;;;;;;;1478327;40;7035;-65
2021/07/27 05:29:54;;;;;;;;;;;;;;;;;;1478241;40;7191;-65
2021/07/27 05:30:56;;;;;;;;;;;;;;;;;;1478440;40;7003;-66
2021/07/27 05:32:02;;;;;;;;;;;;;;;;;;1478785;40;7075;-65
2021/07/27 05:33:05;;;;;;;;;;;;;;;;;;1480389;40;7018;-65
2021/07/27 05:34:08;;;;;;;;;;;;;;;;;;1478145;40;7043;-65
2021/07/27 05:35:11;;;;;;;;;;;;;;;;;;1478620;40;7227;-65
2021/07/27 05:36:13;;;;;;;;;;;;;;;;;;1478492;40;7040;-65
2021/07/27 05:37:16;;;;;;;;;;;;;;;;;;1482358;40;7003;-65
2021/07/27 05:38:18;;;;;;;;;;;;;;;;;;1482700;40;7054;-65
2021/07/27 05:39:21;;;;;;;;;;;;;;;;;;1483049;40;7220;-65
2021/07/27 05:40:23;;;;;;;;;;;;;;;;;;1482226;40;7030;-65
2021/07/27 05:41:25;;;;;;;;;;;;;;;;;;1481638;40;7007;-65
2021/07/27 05:42:28;;;;;;;;;;;;;;;;;;1482856;40;7039;-66
2021/07/27 05:43:30;;;;;;;;;;;;;;;;;;1482887;40;7050;-66
2021/07/27 05:44:33;;;;;;;;;;;;;;;;;;1478919;40;7004;-65
2021/07/27 05:45:35;;;;;;;;;;;;;;;;;;1478323;40;7198;-65
2021/07/27 05:46:39;;;;;;;;;;;;;;;;;;1478776;40;7924;-65
2021/07/27 05:47:41;;;;;;;;;;;;;;;;;;1478744;40;7056;-65
2021/07/27 05:48:46;;;;;;;;;;;;;;;;;;1478591;40;6999;-65
2021/07/27 05:49:48;;;;;;;;;;;;;;;;;;1478712;40;7016;-65
2021/07/27 05:50:51;;;;;;;;;;;;;;;;;;1478984;40;7016;-65
2021/07/27 05:51:54;;;;;;;;;;;;;;;;;;1478649;40;7016;-65
2021/07/27 05:52:57;;;;;;;;;;;;;;;;;;1479537;40;7003;-65
2021/07/27 05:54:00;;;;;;;;;;;;;;;;;;1478926;40;7950;-65
2021/07/27 05:55:02;;;;;;;;;;;;;;;;;;1478640;40;7467;-66
2021/07/27 05:56:05;;;;;;;;;;;;;;;;;;1478425;40;7020;-65
2021/07/27 05:57:11;;;;;;;;;;;;;;;;;;1478223;40;7047;-65
2021/07/27 05:58:14;;;;;;;;;;;;;;;;;;1478428;40;7056;-65
2021/07/27 05:59:16;;;;;;;;;;;;;;;;;;1478815;40;6995;-66
2021/07/27 06:00:19;;;;;;;;;;;;;;;;;;1482342;40;7044;-65
2021/07/27 06:01:22;;;;;;;;;;;;;;;;;;1482254;40;7112;-65
2021/07/27 06:02:25;;;;;;;;;;;;;;;;;;1482595;40;7012;-65
2021/07/27 06:03:27;;;;;;;;;;;;;;;;;;1482663;40;6999;-65
2021/07/27 06:04:30;;;;;;;;;;;;;;;;;;1482884;40;7946;-65
2021/07/27 06:05:35;;;;;;;;;;;;;;;;;;1482904;40;7035;-66
2021/07/27 06:06:37;;;;;;;;;;;;;;;;;;1480656;40;7126;-65
2021/07/27 06:07:40;;;;;;;;;;;;;;;;;;1478843;40;7099;-65
2021/07/27 06:08:42;;;;;;;;;;;;;;;;;;1478944;40;7007;-65
2021/07/27 06:09:45;;;;;;;;;;;;;;;;;;1478626;40;7048;-65
2021/07/27 06:10:47;;;;;;;;;;;;;;;;;;1478481;40;7035;-65
2021/07/27 06:11:49;;;;;;;;;;;;;;;;;;1480247;40;6995;-65
2021/07/27 06:12:52;;;;;;;;;;;;;;;;;;1482908;40;7004;-65
2021/07/27 06:13:54;;;;;;;;;;;;;;;;;;1479757;40;6999;-65
2021/07/27 06:14:57;;;;;;;;;;;;;;;;;;1483213;40;6999;-66
2021/07/27 06:16:05;;;;;;;;;;;;;;;;;;1482669;40;7008;-65
2021/07/27 06:17:14;;;;;;;;;;;;;;;;;;1486600;40;7332;-65
2021/07/27 06:18:16;;;;;;;;;;;;;;;;;;1486115;40;7027;-65
2021/07/27 06:19:19;;;;;;;;;;;;;;;;;;1482887;40;7958;-66
2021/07/27 06:20:21;;;;;;;;;;;;;;;;;;1483216;40;7269;-65
2021/07/27 06:21:23;;;;;;;;;;;;;;;;;;1482697;40;7003;-65
2021/07/27 06:22:26;;;;;;;;;;;;;;;;;;1482770;40;7003;-65
2021/07/27 06:23:28;;;;;;;;;;;;;;;;;;1482294;40;7036;-65
2021/07/27 06:24:31;;;;;;;;;;;;;;;;;;1482202;40;7219;-66
2021/07/27 06:25:35;;;;;;;;;;;;;;;;;;1482752;40;7030;-65
2021/07/27 06:26:38;;;;;;;;;;;;;;;;;;1482155;40;7044;-65
2021/07/27 06:27:40;;;;;;;;;;;;;;;;;;1482552;40;7007;-65
2021/07/27 06:28:43;;;;;;;;;;;;;;;;;;1482716;40;7008;-65
2021/07/27 06:29:45;;;;;;;;;;;;;;;;;;1482045;40;6999;-65
2021/07/27 06:30:48;;;;;;;;;;;;;;;;;;1482460;40;7007;-65
2021/07/27 06:31:50;;;;;;;;;;;;;;;;;;1482364;40;7031;-65
2021/07/27 06:32:52;;;;;;;;;;;;;;;;;;1482498;40;7007;-65
2021/07/27 06:33:55;;;;;;;;;;;;;;;;;;1482255;40;7035;-65
2021/07/27 06:34:57;;;;;;;;;;;;;;;;;;1482552;40;7031;-66
2021/07/27 06:36:00;;;;;;;;;;;;;;;;;;1479199;40;7238;-65
2021/07/27 06:37:02;;;;;;;;;;;;;;;;;;1478239;40;7003;-65
2021/07/27 06:38:05;;;;;;;;;;;;;;;;;;1478600;40;7955;-65
2021/07/27 06:39:07;;;;;;;;;;;;;;;;;;1478540;40;7007;-65
2021/07/27 06:40:10;;;;;;;;;;;;;;;;;;1477995;40;7012;-65
2021/07/27 06:41:13;;;;;;;;;;;;;;;;;;1476783;40;7035;-65
2021/07/27 06:42:15;;;;;;;;;;;;;;;;;;1478180;40;7075;-65
2021/07/27 06:43:17;;;;;;;;;;;;;;;;;;1483222;40;7019;-65
2021/07/27 06:44:20;;;;;;;;;;;;;;;;;;1482506;40;7063;-65
2021/07/27 06:45:26;;;;;;;;;;;;;;;;;;1482812;40;7018;-65
2021/07/27 06:46:28;;;;;;;;;;;;;;;;;;1482408;40;7008;-65
2021/07/27 06:47:31;;;;;;;;;;;;;;;;;;1482763;40;7011;-65
2021/07/27 06:48:34;;;;;;;;;;;;;;;;;;1482745;40;7008;-65
2021/07/27 06:49:36;;;;;;;;;;;;;;;;;;1482912;40;7031;-65
2021/07/27 06:50:39;;;;;;;;;;;;;;;;;;1483073;40;7318;-65
2021/07/27 06:51:41;;;;;;;;;;;;;;;;;;1482833;40;7131;-65
2021/07/27 06:52:43;;;;;;;;;;;;;;;;;;1482479;40;7012;-65
2021/07/27 06:53:46;;;;;;;;;;;;;;;;;;1478679;40;7007;-65
2021/07/27 06:54:48;;;;;;;;;;;;;;;;;;1478506;40;7043;-65
2021/07/27 06:55:51;;;;;;;;;;;;;;;;;;1480158;40;7047;-65
2021/07/27 06:56:54;;;;;;;;;;;;;;;;;;1482751;40;6999;-64
2021/07/27 06:57:56;;;;;;;;;;;;;;;;;;1478137;40;7027;-65
2021/07/27 06:59:00;;;;;;;;;;;;;;;;;;1478478;40;7000;-65
2021/07/27 07:00:04;;;;;;;;;;;;;;;;;;1482585;40;7003;-65
2021/07/27 07:01:09;;;;;;;;;;;;;;;;;;1482070;40;7035;-65
2021/07/27 07:02:12;;;;;;;;;;;;;;;;;;1482715;40;7203;-65
2021/07/27 07:03:14;;;;;;;;;;;;;;;;;;1478819;40;7003;-65
2021/07/27 07:04:17;;;;;;;;;;;;;;;;;;1480393;40;7011;-65
2021/07/27 07:05:19;;;;;;;;;;;;;;;;;;1482386;40;7052;-65
2021/07/27 07:06:21;;;;;;;;;;;;;;;;;;1483114;40;7031;-65
2021/07/27 07:07:24;;;;;;;;;;;;;;;;;;1482774;40;6999;-64
2021/07/27 07:08:27;;;;;;;;;;;;;;;;;;1478215;40;8983;-65
2021/07/27 07:09:29;;;;;;;;;;;;;;;;;;1481790;40;7011;-65
2021/07/27 07:10:32;;;;;;;;;;;;;;;;;;1482445;40;7057;-65
2021/07/27 07:11:35;;;;;;;;;;;;;;;;;;1482678;40;7018;-65
2021/07/27 07:12:38;;;;;;;;;;;;;;;;;;1482853;40;6999;-65
2021/07/27 07:13:40;;;;;;;;;;;;;;;;;;1481436;40;7043;-65
2021/07/27 07:14:43;;;;;;;;;;;;;;;;;;1478396;40;7016;-65
2021/07/27 07:15:45;;;;;;;;;;;;;;;;;;1478157;40;7071;-65
2021/07/27 07:16:48;;;;;;;;;;;;;;;;;;1478901;40;7043;-65
2021/07/27 07:17:51;;;;;;;;;;;;;;;;;;1478298;40;7911;-65
2021/07/27 07:18:53;;;;;;;;;;;;;;;;;;1478274;40;7077;-65
2021/07/27 07:19:56;;;;;;;;;;;;;;;;;;1478664;40;7047;-66
2021/07/27 07:20:58;;;;;;;;;;;;;;;;;;1478754;40;7196;-65
2021/07/27 07:22:01;;;;;;;;;;;;;;;;;;1478111;40;7984;-65
2021/07/27 07:23:03;;;;;;;;;;;;;;;;;;1478388;40;7015;-65
2021/07/27 07:24:06;;;;;;;;;;;;;;;;;;1477984;40;6996;-65
2021/07/27 07:25:08;;;;;;;;;;;;;;;;;;1478232;40;7009;-65
2021/07/27 07:26:11;;;;;;;;;;;;;;;;;;1478030;40;7050;-65
2021/07/27 07:27:14;;;;;;;;;;;;;;;;;;1478268;40;7059;-65
2021/07/27 07:28:16;;;;;;;;;;;;;;;;;;1478202;40;7004;-65
2021/07/27 07:29:19;;;;;;;;;;;;;;;;;;1477976;40;7003;-65
2021/07/27 07:30:21;;;;;;;;;;;;;;;;;;1480733;40;7262;-65
2021/07/27 07:31:24;;;;;;;;;;;;;;;;;;1482310;40;7281;-65
2021/07/27 07:32:27;;;;;;;;;;;;;;;;;;1482356;40;7004;-65
2021/07/27 07:33:29;;;;;;;;;;;;;;;;;;1482384;40;7214;-65
2021/07/27 07:34:33;;;;;;;;;;;;;;;;;;1482539;40;7242;-65
2021/07/27 07:35:36;;;;;;;;;;;;;;;;;;1482108;40;7007;-65
2021/07/27 07:36:38;;;;;;;;;;;;;;;;;;1478497;40;7027;-65
2021/07/27 07:37:40;;;;;;;;;;;;;;;;;;1482379;40;7135;-65
2021/07/27 07:38:43;;;;;;;;;;;;;;;;;;1482361;40;7891;-65